createdAt,value
2022-08-20T00:04:21.966Z,100997.50
2022-08-20T00:09:23.783Z,100996.53
2022-08-20T00:14:25.294Z,101006.47
2022-08-20T00:19:27.162Z,100995.25
2022-08-20T00:24:29.503Z,100996.34
2022-08-20T00:29:31.510Z,100989.59
2022-08-20T00:34:32.992Z,100993.09
2022-08-20T00:39:35.084Z,100984.19
2022-08-20T00:44:36.770Z,100980.53
2022-08-20T00:49:38.342Z,100975.13
2022-08-20T00:54:45.459Z,100973.97
2022-08-20T00:59:49.736Z,100978.59
2022-08-20T01:04:54.625Z,100977.97
2022-08-20T01:09:59.051Z,100977.50
2022-08-20T01:15:03.623Z,100972.28
2022-08-20T01:20:10.488Z,100977.06
2022-08-20T01:25:25.747Z,100981.59
2022-08-20T01:30:29.101Z,100977.50
2022-08-20T01:35:34.711Z,100989.06
2022-08-20T01:40:55.130Z,100983.13
2022-08-20T01:45:56.620Z,100993.28
2022-08-20T01:51:21.467Z,100993.50
2022-08-20T01:56:27.247Z,100996.31
2022-08-20T02:01:46.038Z,100999.13
2022-08-20T02:06:59.204Z,100995.84
2022-08-20T02:12:01.003Z,100991.56
2022-08-20T02:17:02.562Z,100998.69
2022-08-20T02:22:16.945Z,100990.91
2022-08-20T02:27:20.055Z,100992.91
2022-08-20T02:32:24.314Z,100990.75
2022-08-20T02:37:36.504Z,100985.03
2022-08-20T02:42:39.248Z,100981.38
2022-08-20T02:47:43.835Z,100979.84
2022-08-20T02:52:51.583Z,100984.00
2022-08-20T02:57:57.556Z,100988.50
2022-08-20T03:03:01.141Z,100992.94
2022-08-20T03:08:03.778Z,100980.59
2022-08-20T03:13:07.384Z,100980.78
2022-08-20T03:18:09.217Z,100975.00
2022-08-20T03:23:10.955Z,100975.00
2022-08-20T03:28:13.599Z,100970.38
2022-08-20T03:33:16.360Z,100977.78
2022-08-20T03:38:29.260Z,100966.97
2022-08-20T03:43:35.456Z,100958.50
2022-08-20T03:48:38.419Z,100968.94
2022-08-20T03:53:40.209Z,100962.75
2022-08-20T03:58:41.700Z,100961.47
2022-08-20T04:03:43.252Z,100940.94
2022-08-20T04:08:44.729Z,100963.72
2022-08-20T04:13:46.192Z,100982.16
2022-08-20T04:19:01.813Z,100997.81
2022-08-20T04:24:05.735Z,100998.38
2022-08-20T04:29:07.912Z,101013.47
2022-08-20T04:34:09.513Z,101018.47
2022-08-20T04:39:10.979Z,101034.28
2022-08-20T04:44:12.771Z,101034.09
2022-08-20T04:49:14.801Z,101033.97
2022-08-20T04:54:16.540Z,101042.88
2022-08-20T04:59:18.059Z,101048.63
2022-08-20T05:04:19.556Z,101045.16
2022-08-20T05:09:21.137Z,101053.63
2022-08-20T05:14:22.701Z,101053.84
2022-08-20T05:19:24.434Z,101062.69
2022-08-20T05:24:26.284Z,101060.09
2022-08-20T05:29:28.503Z,101062.03
2022-08-20T05:34:30.072Z,101064.16
2022-08-20T05:39:35.495Z,101060.78
2022-08-20T05:44:39.024Z,101074.69
2022-08-20T05:49:40.535Z,101073.22
2022-08-20T05:54:42.034Z,101077.69
2022-08-20T05:59:43.504Z,101080.59
2022-08-20T06:04:45.107Z,101078.72
2022-08-20T06:09:46.649Z,101072.94
2022-08-20T06:14:48.359Z,101085.69
2022-08-20T06:19:50.217Z,101090.91
2022-08-20T06:24:51.791Z,101089.53
2022-08-20T06:29:53.912Z,101092.16
2022-08-20T06:34:55.448Z,101097.28
2022-08-20T06:40:02.500Z,101100.94
2022-08-20T06:45:07.204Z,101098.84
2022-08-20T06:50:15.562Z,101101.53
2022-08-20T06:55:17.670Z,101098.06
2022-08-20T07:00:19.980Z,101095.06
2022-08-20T07:05:21.699Z,101112.72
2022-08-20T07:10:25.143Z,101113.69
2022-08-20T07:15:27.423Z,101123.63
2022-08-20T07:20:31.707Z,101134.16
2022-08-20T07:25:33.668Z,101143.38
2022-08-20T07:30:59.111Z,101148.38
2022-08-20T07:36:14.343Z,101140.19
2022-08-20T07:41:15.963Z,101145.09
2022-08-20T07:46:21.328Z,101158.63
2022-08-20T07:51:23.275Z,101157.81
2022-08-20T07:56:24.789Z,101161.88
2022-08-20T08:01:31.200Z,101165.56
2022-08-20T08:06:33.060Z,101166.91
2022-08-20T08:11:37.993Z,101172.84
2022-08-20T08:16:39.764Z,101179.72
2022-08-20T08:21:41.867Z,101180.56
2022-08-20T08:26:43.979Z,101181.63
2022-08-20T08:31:45.556Z,101172.00
2022-08-20T08:36:47.200Z,101180.38
2022-08-20T08:41:51.057Z,101185.88
2022-08-20T08:47:02.741Z,101183.19
2022-08-20T08:52:11.624Z,101189.56
2022-08-20T08:57:13.203Z,101197.19
2022-08-20T09:02:23.417Z,101203.38
2022-08-20T09:07:33.064Z,101206.91
2022-08-20T09:12:34.603Z,101217.06
2022-08-20T09:17:36.230Z,101214.38
2022-08-20T09:22:37.733Z,101218.53
2022-08-20T09:27:39.302Z,101205.06
2022-08-20T09:32:44.361Z,101223.34
2022-08-20T09:37:46.897Z,101214.16
2022-08-20T09:42:53.307Z,101220.72
2022-08-20T09:47:57.217Z,101234.63
2022-08-20T09:53:01.707Z,101229.03
2022-08-20T09:58:09.108Z,101220.34
2022-08-20T10:03:10.585Z,101224.69
2022-08-20T10:08:13.608Z,101223.25
2022-08-20T10:13:15.557Z,101229.00
2022-08-20T10:18:17.965Z,101224.19
2022-08-20T10:23:19.557Z,101230.22
2022-08-20T10:28:21.096Z,101236.16
2022-08-20T10:33:22.625Z,101239.44
2022-08-20T10:38:24.105Z,101242.91
2022-08-20T10:43:25.739Z,101237.06
2022-08-20T10:48:27.742Z,101239.47
2022-08-20T10:53:29.476Z,101250.84
2022-08-20T10:58:39.632Z,101246.41
2022-08-20T11:03:41.500Z,101250.75
2022-08-20T11:08:43.220Z,101248.22
2022-08-20T11:13:44.745Z,101245.22
2022-08-20T11:18:47.408Z,101233.56
2022-08-20T11:23:49.411Z,101241.72
2022-08-20T11:28:51.276Z,101236.75
2022-08-20T11:33:52.812Z,101247.13
2022-08-20T11:38:54.375Z,101249.25
2022-08-20T11:44:20.051Z,101254.06
2022-08-20T11:49:17.480Z,101253.06
2022-08-20T11:54:19.051Z,101249.72
2022-08-20T11:59:21.074Z,101243.00
2022-08-20T12:04:22.729Z,101250.78
2022-08-20T12:09:26.805Z,101237.34
2022-08-20T12:14:28.334Z,101233.97
2022-08-20T12:19:29.938Z,101232.56
2022-08-20T12:24:31.677Z,101230.38
2022-08-20T12:29:33.411Z,101233.03
2022-08-20T12:34:40.030Z,101223.91
2022-08-20T12:39:44.049Z,101226.69
2022-08-20T12:44:45.652Z,101221.66
2022-08-20T12:49:50.947Z,101225.25
2022-08-20T12:54:53.262Z,101212.88
2022-08-20T13:00:11.393Z,101211.81
2022-08-20T13:05:14.758Z,101201.84
2022-08-20T13:10:25.645Z,101210.78
2022-08-20T13:15:27.174Z,101200.75
2022-08-20T13:20:34.164Z,101198.91
2022-08-20T13:25:36.582Z,101199.44
2022-08-20T13:30:39.051Z,101187.38
2022-08-20T13:35:40.712Z,101189.63
2022-08-20T13:40:42.198Z,101194.81
2022-08-20T13:45:43.848Z,101185.69
2022-08-20T13:50:46.873Z,101177.00
2022-08-20T13:55:49.107Z,101181.97
2022-08-20T14:00:50.833Z,101185.19
2022-08-20T14:05:52.552Z,101177.63
2022-08-20T14:10:54.689Z,101177.03
2022-08-20T14:15:56.615Z,101172.84
2022-08-20T14:20:58.144Z,101175.19
2022-08-20T14:25:59.730Z,101173.47
2022-08-20T14:31:01.198Z,101166.16
2022-08-20T14:36:03.980Z,101180.50
2022-08-20T14:41:05.552Z,101167.63
2022-08-20T14:46:07.129Z,101165.38
2022-08-20T14:51:10.147Z,101163.63
2022-08-20T14:56:11.704Z,101166.81
2022-08-20T15:01:13.301Z,101168.91
2022-08-20T15:06:21.804Z,101165.50
2022-08-20T15:11:23.828Z,101173.78
2022-08-20T15:16:25.355Z,101170.34
2022-08-20T15:21:29.890Z,101162.41
2022-08-20T15:26:47.356Z,101153.47
2022-08-20T15:31:48.880Z,101163.78
2022-08-20T15:36:50.409Z,101152.22
2022-08-20T15:41:51.903Z,101162.41
2022-08-20T15:46:53.484Z,101157.97
2022-08-20T15:51:57.772Z,101156.50
2022-08-20T15:57:08.432Z,101165.91
2022-08-20T16:02:20.654Z,101168.34
2022-08-20T16:07:32.615Z,101159.69
2022-08-20T16:12:38.267Z,101152.28
2022-08-20T16:18:07.480Z,101159.34
2022-08-20T16:23:12.263Z,101159.69
2022-08-20T16:28:22.678Z,101160.47
2022-08-20T16:34:01.112Z,101148.44
2022-08-20T16:39:07.738Z,101150.94
2022-08-20T16:44:18.104Z,101153.25
2022-08-20T16:49:22.231Z,101157.09
2022-08-20T16:54:29.275Z,101157.22
2022-08-20T16:59:32.949Z,101157.22
2022-08-20T17:04:44.405Z,101164.03
2022-08-20T17:10:17.284Z,101160.66
2022-08-20T17:15:26.362Z,101155.16
2022-08-20T17:20:28.171Z,101150.94
2022-08-20T17:25:37.433Z,101154.91
2022-08-20T17:30:39.472Z,101149.56
2022-08-20T17:35:43.549Z,101155.47
2022-08-20T17:40:46.021Z,101156.81
2022-08-20T17:45:48.200Z,101160.22
2022-08-20T17:50:52.227Z,101163.88
2022-08-20T17:56:01.519Z,101163.66
2022-08-20T18:01:04.426Z,101171.75
2022-08-20T18:06:18.488Z,101168.72
2022-08-20T18:12:03.350Z,101172.13
2022-08-20T18:17:15.183Z,101178.56
2022-08-20T18:22:22.439Z,101179.06
2022-08-20T18:27:26.116Z,101175.78
2022-08-20T18:32:37.944Z,101183.69
2022-08-20T18:37:39.956Z,101190.63
2022-08-20T18:42:41.533Z,101182.41
2022-08-20T18:47:46.737Z,101184.59
2022-08-20T18:53:33.090Z,101179.59
2022-08-20T18:58:35.560Z,101186.09
2022-08-20T19:03:41.671Z,101201.41
2022-08-20T19:08:45.944Z,101198.69
2022-08-20T19:14:14.758Z,101198.50
2022-08-20T19:19:20.025Z,101202.06
2022-08-20T19:24:29.036Z,101208.22
2022-08-20T19:29:35.575Z,101206.41
2022-08-20T19:34:38.035Z,101215.94
2022-08-20T19:39:39.694Z,101220.00
2022-08-20T19:44:45.549Z,101219.19
2022-08-20T19:50:09.953Z,101220.97
2022-08-20T19:55:32.684Z,101233.50
2022-08-20T20:00:40.420Z,101231.88
2022-08-20T20:05:52.073Z,101236.34
2022-08-20T20:10:57.987Z,101231.25
2022-08-20T20:16:04.308Z,101237.75
2022-08-20T20:21:25.050Z,101228.78
2022-08-20T20:26:41.163Z,101233.06
2022-08-20T20:31:49.394Z,101223.69
2022-08-20T20:37:02.779Z,101227.47
2022-08-20T20:42:07.976Z,101226.34
2022-08-20T20:47:19.560Z,101222.84
2022-08-20T20:52:31.895Z,101232.00
2022-08-20T20:57:38.046Z,101223.44
2022-08-20T21:02:41.139Z,101228.44
2022-08-20T21:07:50.275Z,101221.13
2022-08-20T21:12:53.539Z,101225.66
2022-08-20T21:17:59.243Z,101223.38
2022-08-20T21:23:00.773Z,101229.00
2022-08-20T21:28:02.517Z,101228.03
2022-08-20T21:33:04.068Z,101226.09
2022-08-20T21:38:05.536Z,101230.16
2022-08-20T21:43:07.283Z,101220.88
2022-08-20T21:48:08.759Z,101226.75
2022-08-20T21:53:11.353Z,101225.66
2022-08-20T21:58:15.860Z,101226.72
2022-08-20T22:03:20.096Z,101228.72
2022-08-20T22:08:24.281Z,101227.56
2022-08-20T22:13:31.814Z,101228.72
2022-08-20T22:18:35.359Z,101234.13
2022-08-20T22:23:39.977Z,101229.91
2022-08-20T22:28:42.317Z,101228.06
2022-08-20T22:33:44.053Z,101223.41
2022-08-20T22:38:45.800Z,101228.88
2022-08-20T22:43:56.330Z,101223.94
2022-08-20T22:48:59.456Z,101225.16
2022-08-20T22:54:02.560Z,101220.78
2022-08-20T22:59:05.014Z,101225.06
2022-08-20T23:04:17.068Z,101225.16
2022-08-20T23:09:21.050Z,101221.59
2022-08-20T23:14:22.829Z,101223.34
2022-08-20T23:19:28.819Z,101211.59
2022-08-20T23:24:31.000Z,101216.78
2022-08-20T23:29:32.650Z,101205.41
2022-08-20T23:34:34.305Z,101211.13
2022-08-20T23:39:37.249Z,101204.41
2022-08-20T23:44:38.938Z,101194.75
2022-08-20T23:49:40.629Z,101194.69
2022-08-20T23:54:42.662Z,101202.94
2022-08-20T23:59:44.492Z,101192.34
